createdAt,value
2019-02-17T00:00:39.081Z,8.88
2019-02-17T00:03:08.889Z,8.86
2019-02-17T00:05:38.589Z,8.76
2019-02-17T00:08:08.246Z,8.71
2019-02-17T00:10:37.887Z,8.62
2019-02-17T00:13:07.840Z,8.52
2019-02-17T00:15:37.506Z,8.45
2019-02-17T00:18:09.137Z,8.39
2019-02-17T00:20:38.791Z,8.36
2019-02-17T00:23:08.485Z,8.34
2019-02-17T00:25:38.241Z,8.32
2019-02-17T00:28:07.866Z,8.28
2019-02-17T00:30:38.278Z,8.25
2019-02-17T00:33:07.906Z,8.25
2019-02-17T00:35:37.544Z,8.24
2019-02-17T00:38:07.489Z,8.23
2019-02-17T00:40:37.194Z,8.28
2019-02-17T00:43:07.580Z,8.36
2019-02-17T00:45:37.389Z,8.40
2019-02-17T00:48:07.014Z,8.45
2019-02-17T00:50:36.768Z,8.44
2019-02-17T00:53:06.444Z,8.39
2019-02-17T00:55:36.086Z,8.33
2019-02-17T00:58:05.831Z,8.31
2019-02-17T01:00:35.797Z,8.31
2019-02-17T01:03:05.539Z,8.31
2019-02-17T01:05:35.247Z,8.30
2019-02-17T01:08:05.598Z,8.32
2019-02-17T01:10:35.391Z,8.29
2019-02-17T01:13:05.897Z,8.28
2019-02-17T01:15:35.687Z,8.27
2019-02-17T01:18:05.488Z,8.26
2019-02-17T01:20:35.594Z,8.28
2019-02-17T01:23:05.294Z,8.32
2019-02-17T01:25:34.921Z,8.34
2019-02-17T01:28:04.690Z,8.31
2019-02-17T01:30:34.462Z,8.29
2019-02-17T01:33:04.365Z,8.30
2019-02-17T01:35:34.054Z,8.32
2019-02-17T01:38:04.589Z,8.35
2019-02-17T01:40:34.261Z,8.35
2019-02-17T01:43:04.561Z,8.36
2019-02-17T01:45:34.430Z,8.35
2019-02-17T01:48:04.591Z,8.35
2019-02-17T01:50:35.305Z,8.34
2019-02-17T01:53:06.046Z,8.35
2019-02-17T01:55:36.013Z,8.37
2019-02-17T01:58:06.053Z,8.34
2019-02-17T02:00:36.822Z,8.34
2019-02-17T02:03:06.824Z,8.35
2019-02-17T02:05:36.614Z,8.27
2019-02-17T02:08:06.688Z,8.18
2019-02-17T02:10:36.427Z,8.12
2019-02-17T02:13:06.996Z,8.11
2019-02-17T02:15:36.860Z,8.24
2019-02-17T02:18:06.488Z,8.34
2019-02-17T02:20:36.115Z,8.40
2019-02-17T02:23:06.265Z,8.45
2019-02-17T02:25:38.743Z,8.51
2019-02-17T02:28:09.603Z,8.58
2019-02-17T02:30:40.054Z,8.62
2019-02-17T02:33:11.651Z,8.68
2019-02-17T02:35:43.079Z,8.71
2019-02-17T02:38:13.660Z,8.72
2019-02-17T02:40:43.949Z,8.71
2019-02-17T02:43:13.694Z,8.68
2019-02-17T02:45:43.654Z,8.71
2019-02-17T02:48:14.055Z,8.70
2019-02-17T02:50:44.010Z,8.65
2019-02-17T02:53:13.785Z,8.56
2019-02-17T02:55:43.793Z,8.54
2019-02-17T02:58:13.408Z,8.52
2019-02-17T03:00:43.548Z,8.47
2019-02-17T03:03:13.182Z,8.40
2019-02-17T03:05:44.838Z,8.36
2019-02-17T03:08:14.619Z,8.36
2019-02-17T03:10:44.250Z,8.39
2019-02-17T03:13:13.993Z,8.43
2019-02-17T03:15:43.700Z,8.45
2019-02-17T03:18:15.114Z,8.44
2019-02-17T03:20:44.737Z,8.43
2019-02-17T03:23:16.254Z,8.42
2019-02-17T03:25:46.445Z,8.43
2019-02-17T03:28:16.082Z,8.43
2019-02-17T03:30:46.451Z,8.45
2019-02-17T03:33:16.116Z,8.49
2019-02-17T03:35:45.706Z,8.49
2019-02-17T03:38:15.367Z,8.47
2019-02-17T03:40:45.869Z,8.46
2019-02-17T03:43:15.781Z,8.39
2019-02-17T03:45:45.829Z,8.30
2019-02-17T03:48:16.135Z,8.21
2019-02-17T03:50:45.764Z,8.15
2019-02-17T03:53:17.406Z,8.09
2019-02-17T03:55:47.156Z,8.06
2019-02-17T03:58:17.742Z,8.03
2019-02-17T04:00:47.451Z,7.99
2019-02-17T04:03:17.186Z,8.01
2019-02-17T04:05:47.165Z,8.04
2019-02-17T04:08:17.507Z,8.06
2019-02-17T04:10:47.501Z,8.08
2019-02-17T04:13:18.226Z,8.09
2019-02-17T04:15:47.992Z,8.09
2019-02-17T04:18:18.267Z,8.06
2019-02-17T04:20:47.909Z,8.02
2019-02-17T04:23:17.965Z,7.97
2019-02-17T04:25:48.136Z,7.92
2019-02-17T04:28:17.781Z,7.91
2019-02-17T04:30:48.066Z,7.88
2019-02-17T04:33:19.378Z,7.87
2019-02-17T04:35:49.339Z,7.85
2019-02-17T04:38:19.118Z,7.79
2019-02-17T04:40:48.751Z,7.72
2019-02-17T04:43:18.729Z,7.68
2019-02-17T04:45:48.790Z,7.65
2019-02-17T04:48:19.492Z,7.67
2019-02-17T04:50:49.710Z,7.69
2019-02-17T04:53:19.452Z,7.74
2019-02-17T04:55:49.200Z,7.78
2019-02-17T04:58:19.444Z,7.81
2019-02-17T05:00:50.108Z,7.85
2019-02-17T05:03:21.481Z,7.92
2019-02-17T05:05:51.177Z,7.98
2019-02-17T05:08:20.806Z,8.05
2019-02-17T05:10:51.523Z,8.08
2019-02-17T05:13:21.192Z,8.10
2019-02-17T05:15:51.792Z,8.10
2019-02-17T05:18:21.410Z,8.08
2019-02-17T05:20:51.237Z,8.10
2019-02-17T05:23:20.842Z,8.14
2019-02-17T05:25:50.591Z,8.13
2019-02-17T05:28:20.278Z,8.13
2019-02-17T05:30:53.123Z,8.17
2019-02-17T05:33:24.865Z,8.21
2019-02-17T05:35:56.865Z,8.18
2019-02-17T05:38:27.253Z,8.18
2019-02-17T05:40:57.160Z,8.20
2019-02-17T05:43:27.072Z,8.17
2019-02-17T05:45:56.522Z,8.17
2019-02-17T05:48:29.376Z,8.17
2019-02-17T05:51:01.274Z,8.19
2019-02-17T05:53:32.421Z,8.19
2019-02-17T05:56:03.683Z,8.16
2019-02-17T05:58:33.879Z,8.17
2019-02-17T06:01:05.546Z,8.14
2019-02-17T06:03:35.708Z,8.09
2019-02-17T06:06:05.409Z,8.09
2019-02-17T06:08:35.031Z,8.09
2019-02-17T06:11:04.666Z,8.09
2019-02-17T06:13:34.335Z,8.06
2019-02-17T06:16:03.970Z,8.06
2019-02-17T06:18:33.860Z,8.04
2019-02-17T06:21:03.530Z,8.00
2019-02-17T06:23:33.575Z,7.97
2019-02-17T06:26:03.320Z,7.99
2019-02-17T06:28:34.496Z,7.96
2019-02-17T06:31:13.898Z,7.96
2019-02-17T06:33:36.664Z,8.01
2019-02-17T06:36:06.901Z,8.02
2019-02-17T06:38:37.010Z,8.01
2019-02-17T06:41:06.655Z,8.01
2019-02-17T06:43:37.413Z,7.99
2019-02-17T06:46:07.380Z,7.93
2019-02-17T06:48:37.299Z,7.88
2019-02-17T06:51:06.974Z,7.85
2019-02-17T06:53:37.763Z,7.82
2019-02-17T06:56:09.222Z,7.85
2019-02-17T06:58:40.695Z,7.89
2019-02-17T07:01:10.328Z,7.99
2019-02-17T07:03:40.068Z,8.10
2019-02-17T07:06:14.451Z,8.25
2019-02-17T07:08:44.175Z,8.37
2019-02-17T07:11:14.155Z,8.47
2019-02-17T07:13:43.849Z,8.48
2019-02-17T07:16:15.132Z,8.52
2019-02-17T07:18:45.312Z,8.51
2019-02-17T07:21:15.003Z,8.55
2019-02-17T07:23:45.196Z,8.63
2019-02-17T07:26:17.255Z,8.72
2019-02-17T07:28:47.398Z,8.77
2019-02-17T07:31:17.089Z,8.83
2019-02-17T07:33:47.590Z,8.88
2019-02-17T07:36:17.638Z,8.95
2019-02-17T07:38:47.956Z,8.99
2019-02-17T07:41:17.852Z,9.06
2019-02-17T07:43:47.660Z,9.09
2019-02-17T07:46:17.398Z,9.14
2019-02-17T07:48:47.026Z,9.16
2019-02-17T07:51:16.802Z,9.17
2019-02-17T07:53:46.817Z,9.13
2019-02-17T07:56:16.448Z,9.15
2019-02-17T07:58:46.243Z,9.14
2019-02-17T08:01:15.951Z,9.12
2019-02-17T08:03:45.965Z,9.14
2019-02-17T08:06:15.779Z,9.14
2019-02-17T08:08:45.405Z,9.15
2019-02-17T08:11:15.155Z,9.13
2019-02-17T08:13:44.935Z,9.11
2019-02-17T08:16:14.574Z,9.10
2019-02-17T08:18:44.582Z,9.12
2019-02-17T08:21:15.089Z,9.19
2019-02-17T08:23:44.798Z,9.26
2019-02-17T08:26:14.695Z,9.32
2019-02-17T08:28:45.829Z,9.32
2019-02-17T08:31:15.454Z,9.27
2019-02-17T08:33:45.961Z,9.24
2019-02-17T08:36:16.591Z,9.22
2019-02-17T08:38:46.397Z,9.19
2019-02-17T08:41:16.022Z,9.19
2019-02-17T08:43:45.697Z,9.21
2019-02-17T08:46:15.312Z,9.23
2019-02-17T08:48:44.947Z,9.23
2019-02-17T08:51:14.868Z,9.24
2019-02-17T08:53:44.666Z,9.25
2019-02-17T08:56:18.698Z,9.31
2019-02-17T08:58:48.475Z,9.39
2019-02-17T09:01:19.648Z,9.47
2019-02-17T09:03:50.038Z,9.52
2019-02-17T09:06:21.316Z,9.58
2019-02-17T09:08:51.446Z,9.69
2019-02-17T09:11:21.874Z,9.76
2019-02-17T09:13:51.696Z,9.76
2019-02-17T09:16:21.448Z,9.78
2019-02-17T09:18:51.141Z,9.84
2019-02-17T09:21:22.483Z,9.80
2019-02-17T09:23:52.262Z,9.82
2019-02-17T09:26:21.857Z,9.81
2019-02-17T09:28:51.611Z,9.88
2019-02-17T09:31:21.245Z,9.94
2019-02-17T09:33:50.875Z,9.96
2019-02-17T09:36:21.112Z,9.99
2019-02-17T09:38:53.579Z,9.97
2019-02-17T09:41:23.217Z,9.98
2019-02-17T09:43:53.087Z,10.05
2019-02-17T09:46:23.109Z,9.93
2019-02-17T09:48:52.808Z,9.92
2019-02-17T09:51:22.958Z,9.93
2019-02-17T09:53:52.585Z,10.07
2019-02-17T09:56:22.222Z,10.23
2019-02-17T09:58:54.973Z,10.41
2019-02-17T10:01:24.770Z,10.51
2019-02-17T10:03:54.525Z,10.59
2019-02-17T10:06:24.678Z,10.51
2019-02-17T10:08:54.307Z,10.39
2019-02-17T10:11:23.944Z,10.40
2019-02-17T10:13:55.040Z,10.37
2019-02-17T10:16:24.694Z,10.38
2019-02-17T10:18:55.186Z,10.48
2019-02-17T10:21:24.869Z,10.53
2019-02-17T10:23:54.509Z,10.59
2019-02-17T10:26:26.960Z,10.69
2019-02-17T10:28:56.824Z,10.68
2019-02-17T10:31:26.450Z,10.64
2019-02-17T10:33:56.084Z,10.64
2019-02-17T10:36:25.830Z,10.59
2019-02-17T10:38:55.451Z,10.64
2019-02-17T10:41:25.091Z,10.71
2019-02-17T10:43:54.849Z,10.74
2019-02-17T10:46:24.623Z,10.74
2019-02-17T10:48:54.242Z,10.84
2019-02-17T10:51:26.354Z,10.95
2019-02-17T10:53:55.420Z,11.06
2019-02-17T10:56:26.639Z,11.01
2019-02-17T10:58:57.070Z,10.92
2019-02-17T11:01:27.077Z,11.03
2019-02-17T11:04:07.903Z,11.09
2019-02-17T11:06:38.407Z,11.02
2019-02-17T11:09:10.152Z,11.09
2019-02-17T11:11:40.476Z,10.95
2019-02-17T11:14:10.112Z,11.07
2019-02-17T11:16:39.830Z,11.08
2019-02-17T11:19:09.614Z,11.18
2019-02-17T11:21:42.154Z,11.32
2019-02-17T11:24:11.806Z,11.34
2019-02-17T11:26:43.054Z,11.43
2019-02-17T11:29:12.694Z,11.52
2019-02-17T11:31:42.471Z,11.66
2019-02-17T11:34:12.286Z,11.65
2019-02-17T11:36:41.923Z,11.54
2019-02-17T11:39:13.227Z,11.48
2019-02-17T11:41:42.945Z,11.40
2019-02-17T11:44:12.638Z,11.37
2019-02-17T11:46:42.286Z,11.38
2019-02-17T11:49:12.651Z,11.41
2019-02-17T11:51:42.358Z,11.42
2019-02-17T11:54:12.112Z,11.43
2019-02-17T11:56:41.906Z,11.41
2019-02-17T11:59:11.536Z,11.41
2019-02-17T12:01:43.903Z,11.39
2019-02-17T12:04:13.609Z,11.41
2019-02-17T12:06:43.321Z,11.42
2019-02-17T12:09:13.550Z,11.35
2019-02-17T12:11:43.402Z,11.36
2019-02-17T12:14:13.050Z,11.39
2019-02-17T12:16:42.749Z,11.37
2019-02-17T12:19:12.503Z,11.30
2019-02-17T12:21:51.693Z,11.25
2019-02-17T12:24:23.323Z,11.26
2019-02-17T12:27:00.337Z,11.24
2019-02-17T12:29:38.526Z,11.25
2019-02-17T12:32:09.596Z,11.20
2019-02-17T12:34:39.606Z,11.25
2019-02-17T12:37:09.285Z,11.33
2019-02-17T12:39:38.993Z,11.36
2019-02-17T12:42:08.696Z,11.62
2019-02-17T12:44:38.820Z,11.69
2019-02-17T12:47:09.462Z,11.94
2019-02-17T12:49:39.938Z,12.70
2019-02-17T12:52:09.619Z,13.78
2019-02-17T12:54:39.265Z,13.97
2019-02-17T12:57:10.671Z,13.78
2019-02-17T12:59:40.363Z,13.27
2019-02-17T13:02:10.070Z,13.27
2019-02-17T13:04:41.513Z,13.53
2019-02-17T13:07:15.311Z,13.83
2019-02-17T13:09:46.470Z,14.62
2019-02-17T13:12:19.038Z,13.92
2019-02-17T13:14:49.213Z,13.53
2019-02-17T13:17:22.016Z,12.79
2019-02-17T13:19:58.086Z,11.96
2019-02-17T13:22:31.962Z,11.50
2019-02-17T13:25:04.155Z,11.09
2019-02-17T13:27:46.837Z,10.69
2019-02-17T13:30:20.309Z,10.48
2019-02-17T13:32:53.424Z,10.27
2019-02-17T13:35:25.747Z,10.11
2019-02-17T13:38:00.724Z,10.04
2019-02-17T13:40:34.063Z,10.02
2019-02-17T13:43:06.010Z,10.05
2019-02-17T13:45:44.901Z,9.96
2019-02-17T13:48:16.027Z,9.97
2019-02-17T13:50:45.796Z,10.07
2019-02-17T13:53:16.017Z,10.12
2019-02-17T13:55:48.803Z,10.09
2019-02-17T13:58:18.539Z,10.01
2019-02-17T14:00:48.400Z,10.03
2019-02-17T14:03:18.310Z,9.97
2019-02-17T14:05:48.020Z,9.98
2019-02-17T14:08:20.896Z,9.96
2019-02-17T14:10:50.591Z,9.90
2019-02-17T14:13:20.260Z,9.71
2019-02-17T14:15:50.006Z,9.48
2019-02-17T14:18:22.043Z,9.38
2019-02-17T14:20:52.733Z,9.33
2019-02-17T14:23:22.621Z,9.31
2019-02-17T14:25:52.427Z,9.34
2019-02-17T14:28:22.275Z,9.37
2019-02-17T14:30:53.924Z,9.34
2019-02-17T14:33:24.073Z,9.35
2019-02-17T14:35:54.418Z,9.37
2019-02-17T14:38:24.887Z,9.39
2019-02-17T14:40:54.521Z,9.32
2019-02-17T14:43:24.206Z,9.28
2019-02-17T14:45:55.266Z,9.25
2019-02-17T14:48:24.894Z,9.19
2019-02-17T14:50:54.609Z,9.18
2019-02-17T14:53:24.511Z,9.19
2019-02-17T14:55:54.152Z,9.19
2019-02-17T14:58:23.804Z,9.16
2019-02-17T15:00:53.532Z,9.10
2019-02-17T15:03:23.227Z,9.09
2019-02-17T15:05:53.771Z,9.06
2019-02-17T15:08:24.814Z,8.99
2019-02-17T15:10:54.618Z,8.89
2019-02-17T15:13:24.915Z,8.84
2019-02-17T15:15:54.831Z,8.83
2019-02-17T15:18:24.549Z,8.83
2019-02-17T15:20:56.182Z,8.80
2019-02-17T15:23:26.085Z,8.75
2019-02-17T15:25:55.862Z,8.71
2019-02-17T15:28:25.552Z,8.65
2019-02-17T15:30:55.279Z,8.58
2019-02-17T15:33:27.785Z,8.54
2019-02-17T15:35:57.605Z,8.48
2019-02-17T15:38:29.833Z,8.42
2019-02-17T15:41:06.041Z,8.37
2019-02-17T15:43:36.835Z,8.36
2019-02-17T15:46:07.044Z,8.35
2019-02-17T15:48:37.234Z,8.32
2019-02-17T15:51:07.160Z,8.26
2019-02-17T15:53:36.781Z,8.27
2019-02-17T15:56:07.112Z,8.29
2019-02-17T15:58:36.813Z,8.30
2019-02-17T16:01:09.166Z,8.32
2019-02-17T16:03:39.235Z,8.29
2019-02-17T16:06:09.007Z,8.27
2019-02-17T16:08:41.430Z,8.25
2019-02-17T16:11:12.064Z,8.25
2019-02-17T16:13:41.690Z,8.16
2019-02-17T16:16:11.453Z,8.05
2019-02-17T16:18:41.323Z,8.00
2019-02-17T16:21:15.645Z,7.98
2019-02-17T16:23:47.698Z,7.96
2019-02-17T16:26:19.579Z,7.94
2019-02-17T16:28:49.660Z,7.94
2019-02-17T16:31:21.624Z,7.85
2019-02-17T16:33:55.361Z,7.79
2019-02-17T16:36:27.331Z,7.79
2019-02-17T16:38:58.429Z,7.76
2019-02-17T16:41:28.210Z,7.73
2019-02-17T16:43:57.935Z,7.68
2019-02-17T16:46:27.564Z,7.63
2019-02-17T16:48:57.360Z,7.62
2019-02-17T16:51:27.761Z,7.63
2019-02-17T16:53:57.400Z,7.60
2019-02-17T16:56:27.919Z,7.62
2019-02-17T16:58:57.548Z,7.63
2019-02-17T17:01:27.181Z,7.60
2019-02-17T17:03:57.017Z,7.57
2019-02-17T17:06:27.087Z,7.56
2019-02-17T17:08:56.720Z,7.56
2019-02-17T17:11:29.302Z,7.54
2019-02-17T17:14:00.870Z,7.53
2019-02-17T17:16:36.979Z,7.55
2019-02-17T17:19:06.674Z,7.53
2019-02-17T17:21:36.313Z,7.52
2019-02-17T17:27:53.717Z,7.55
2019-02-17T17:30:23.741Z,7.52
2019-02-17T17:32:54.373Z,7.50
2019-02-17T17:35:24.019Z,7.44
2019-02-17T17:37:53.730Z,7.42
2019-02-17T17:40:23.372Z,7.38
2019-02-17T17:42:53.013Z,7.37
2019-02-17T17:45:23.238Z,7.39
2019-02-17T17:47:52.890Z,7.38
2019-02-17T17:50:22.524Z,7.33
2019-02-17T17:52:53.796Z,7.31
2019-02-17T17:55:23.418Z,7.28
2019-02-17T17:57:53.606Z,7.25
2019-02-17T18:00:34.211Z,7.17
2019-02-17T18:03:03.846Z,7.11
2019-02-17T18:05:33.586Z,7.04
2019-02-17T18:08:03.446Z,6.96
2019-02-17T18:10:33.184Z,6.90
2019-02-17T18:13:02.929Z,6.84
2019-02-17T18:15:32.606Z,6.79
2019-02-17T18:18:03.666Z,6.74
2019-02-17T18:20:33.303Z,6.74
2019-02-17T18:23:03.018Z,6.77
2019-02-17T18:25:32.734Z,6.78
2019-02-17T18:28:02.350Z,6.84
2019-02-17T18:30:32.038Z,6.87
2019-02-17T18:33:01.666Z,6.90
2019-02-17T18:35:31.331Z,6.91
2019-02-17T18:38:01.022Z,6.94
2019-02-17T18:40:30.656Z,7.00
2019-02-17T18:43:00.404Z,7.07
2019-02-17T18:45:30.102Z,7.14
2019-02-17T18:48:00.463Z,7.14
2019-02-17T18:50:30.160Z,7.15
2019-02-17T18:53:02.693Z,7.11
2019-02-17T18:55:32.328Z,7.09
2019-02-17T18:58:02.912Z,7.08
2019-02-17T19:00:32.685Z,7.06
2019-02-17T19:03:03.568Z,7.05
2019-02-17T19:05:33.284Z,7.09
2019-02-17T19:08:04.854Z,7.08
2019-02-17T19:10:36.340Z,7.04
2019-02-17T19:13:06.030Z,6.97
2019-02-17T19:15:35.802Z,6.95
2019-02-17T19:18:07.816Z,6.95
2019-02-17T19:20:40.712Z,6.93
2019-02-17T19:23:10.446Z,6.99
2019-02-17T19:25:40.957Z,6.99
2019-02-17T19:28:13.307Z,6.91
2019-02-17T19:30:43.198Z,6.85
2019-02-17T19:33:13.251Z,6.77
2019-02-17T19:35:44.843Z,6.68
2019-02-17T19:38:14.619Z,6.64
2019-02-17T19:40:51.434Z,6.64
2019-02-17T19:43:22.810Z,6.67
2019-02-17T19:45:52.434Z,6.70
2019-02-17T19:48:22.372Z,6.72
2019-02-17T19:50:53.859Z,6.75
2019-02-17T19:53:23.735Z,6.80
2019-02-17T19:55:53.502Z,6.77
2019-02-17T19:58:23.164Z,6.74
2019-02-17T20:00:55.017Z,6.71
2019-02-17T20:03:38.289Z,6.66
2019-02-17T20:06:09.205Z,6.67
2019-02-17T20:08:38.841Z,6.63
2019-02-17T20:11:08.928Z,6.63
2019-02-17T20:13:39.245Z,6.63
2019-02-17T20:16:08.872Z,6.65
2019-02-17T20:18:41.117Z,6.78
2019-02-17T20:21:10.748Z,6.75
2019-02-17T20:23:40.503Z,6.70
2019-02-17T20:26:10.782Z,6.65
2019-02-17T20:28:43.338Z,6.60
2019-02-17T20:31:11.762Z,6.57
2019-02-17T20:33:41.433Z,6.60
2019-02-17T20:36:11.074Z,6.65
2019-02-17T20:38:41.021Z,6.71
2019-02-17T20:41:10.730Z,6.76
2019-02-17T20:43:40.471Z,6.83
2019-02-17T20:46:10.229Z,6.85
2019-02-17T20:48:39.867Z,6.87
2019-02-17T20:51:09.549Z,6.82
2019-02-17T20:53:39.180Z,6.76
2019-02-17T20:56:10.236Z,6.71
2019-02-17T20:58:40.212Z,6.69
2019-02-17T21:01:09.853Z,6.68
2019-02-17T21:03:39.636Z,6.71
2019-02-17T21:06:13.065Z,6.72
2019-02-17T21:08:43.208Z,6.74
2019-02-17T21:11:13.148Z,6.72
2019-02-17T21:13:43.260Z,6.67
2019-02-17T21:16:13.623Z,6.65
2019-02-17T21:18:43.459Z,6.67
2019-02-17T21:21:13.168Z,6.67
2019-02-17T21:23:42.876Z,6.66
2019-02-17T21:26:13.133Z,6.60
2019-02-17T21:28:43.020Z,6.59
2019-02-17T21:31:15.707Z,6.55
2019-02-17T21:33:45.352Z,6.49
2019-02-17T21:36:23.267Z,6.46
2019-02-17T21:38:50.649Z,6.44
2019-02-17T21:41:20.411Z,6.38
2019-02-17T21:43:50.976Z,6.29
2019-02-17T21:46:23.685Z,6.16
2019-02-17T21:48:54.349Z,6.09
2019-02-17T21:51:23.983Z,6.03
2019-02-17T21:53:53.987Z,5.95
2019-02-17T21:56:23.687Z,5.88
2019-02-17T21:58:53.344Z,5.85
2019-02-17T22:01:23.288Z,5.82
2019-02-17T22:03:53.236Z,5.78
2019-02-17T22:06:32.902Z,5.71
2019-02-17T22:08:54.193Z,5.65
2019-02-17T22:11:26.977Z,5.59
2019-02-17T22:13:56.606Z,5.55
2019-02-17T22:16:26.221Z,5.52
2019-02-17T22:18:59.016Z,5.63
2019-02-17T22:21:36.351Z,5.68
2019-02-17T22:24:07.017Z,5.62
2019-02-17T22:26:39.650Z,5.55
2019-02-17T22:29:13.961Z,5.51
2019-02-17T22:31:43.964Z,5.45
2019-02-17T22:34:15.413Z,5.39
2019-02-17T22:36:48.178Z,5.34
2019-02-17T22:39:18.491Z,5.29
2019-02-17T22:41:53.006Z,5.24
2019-02-17T22:44:24.455Z,5.18
2019-02-17T22:46:56.341Z,5.14
2019-02-17T22:49:28.386Z,5.10
2019-02-17T22:51:58.124Z,5.06
2019-02-17T22:54:27.856Z,5.03
2019-02-17T22:56:59.675Z,4.99
2019-02-17T22:59:30.743Z,4.97
2019-02-17T23:02:00.660Z,4.94
2019-02-17T23:04:32.109Z,4.90
2019-02-17T23:07:03.232Z,4.87
2019-02-17T23:09:34.672Z,4.85
2019-02-17T23:12:04.557Z,4.84
2019-02-17T23:14:34.523Z,4.81
2019-02-17T23:17:04.284Z,4.80
2019-02-17T23:19:33.989Z,4.82
2019-02-17T23:22:06.665Z,4.84
2019-02-17T23:24:36.567Z,4.88
2019-02-17T23:27:07.832Z,4.97
2019-02-17T23:29:37.751Z,5.09
2019-02-17T23:32:07.742Z,5.22
2019-02-17T23:34:37.438Z,5.31
2019-02-17T23:37:09.801Z,5.41
2019-02-17T23:39:42.397Z,5.46
2019-02-17T23:42:14.492Z,5.50
2019-02-17T23:44:50.144Z,5.54
2019-02-17T23:47:23.846Z,5.62
2019-02-17T23:49:57.142Z,5.70
2019-02-17T23:52:29.389Z,5.78
2019-02-17T23:54:59.473Z,5.81
2019-02-17T23:57:29.908Z,5.81
2019-02-17T23:59:59.535Z,5.84
